Time;durP1;ratioP1;P1;durP2;ratioP2;P2;SDS_P1;SDS_P2;PMS_P1;PMS_P2;Temp;Humidity;BMP_temperature;BMP_pressure;BME280_temperature;BME280_humidity;BME280_pressure;Samples;Min_cycle;Max_cycle;Signal;HPM_P1;HPM_P2
2023/10/30 00:00:26;;;;;;;0.97;0.30;;;12.60;99.90;;;;;;5084565;28;20830;-66
2023/10/30 00:02:53;;;;;;;0.97;0.70;;;12.60;99.90;;;;;;5085323;28;20613;-66
2023/10/30 00:05:20;;;;;;;1.07;0.70;;;12.70;99.90;;;;;;5085190;28;20311;-66
2023/10/30 00:07:47;;;;;;;0.93;0.47;;;12.70;99.90;;;;;;5085084;28;20321;-66
2023/10/30 00:10:14;;;;;;;1.37;0.80;;;12.70;99.90;;;;;;5096827;28;20208;-66
2023/10/30 00:12:40;;;;;;;1.83;0.50;;;12.70;99.90;;;;;;5101012;27;20203;-66
2023/10/30 00:15:09;;;;;;;1.27;0.80;;;12.70;99.90;;;;;;5084797;28;20573;-66
2023/10/30 00:17:36;;;;;;;0.77;0.57;;;12.70;99.90;;;;;;5084472;28;20199;-66
2023/10/30 00:20:03;;;;;;;1.87;0.80;;;12.70;99.90;;;;;;5103211;28;20205;-66
2023/10/30 00:22:30;;;;;;;2.10;0.87;;;12.70;99.90;;;;;;5104821;28;20210;-66
2023/10/30 00:24:57;;;;;;;0.63;0.60;;;12.70;99.90;;;;;;5105312;28;20206;-66
2023/10/30 00:27:24;;;;;;;1.90;0.60;;;12.80;99.90;;;;;;5104832;28;20236;-67
2023/10/30 00:29:51;;;;;;;0.90;0.73;;;12.80;99.90;;;;;;5085843;28;20636;-67
2023/10/30 00:32:19;;;;;;;1.10;0.70;;;12.80;99.90;;;;;;5089056;28;20317;-67
2023/10/30 00:34:46;;;;;;;3.07;0.67;;;12.80;99.90;;;;;;5099560;28;20573;-67
2023/10/30 00:37:13;;;;;;;1.43;0.63;;;12.80;99.90;;;;;;5088388;28;20333;-67
2023/10/30 00:39:39;;;;;;;1.67;0.70;;;12.80;99.90;;;;;;5088170;28;20238;-67
2023/10/30 00:42:06;;;;;;;1.77;0.70;;;12.80;99.90;;;;;;5088376;28;20912;-67
2023/10/30 00:44:33;;;;;;;0.70;0.70;;;12.80;99.90;;;;;;5088324;28;20318;-67
2023/10/30 00:47:00;;;;;;;0.60;0.60;;;12.80;99.90;;;;;;5096310;28;20225;-66
2023/10/30 00:49:29;;;;;;;4.00;0.87;;;12.80;99.90;;;;;;5108240;28;20309;-66
2023/10/30 00:51:55;;;;;;;1.50;0.80;;;12.80;99.90;;;;;;5108408;27;20208;-66
2023/10/30 00:54:22;;;;;;;2.40;1.00;;;12.80;99.90;;;;;;5108085;28;20245;-66
2023/10/30 00:56:49;;;;;;;1.50;0.30;;;12.80;99.90;;;;;;5108344;28;20293;-66
2023/10/30 00:59:16;;;;;;;1.13;0.50;;;12.80;99.90;;;;;;5105218;28;20223;-66
2023/10/30 01:01:43;;;;;;;1.20;0.40;;;12.80;99.90;;;;;;5087552;28;20663;-66
2023/10/30 01:04:10;;;;;;;0.47;0.40;;;12.80;99.90;;;;;;5097965;28;20206;-66
2023/10/30 01:06:38;;;;;;;2.33;0.47;;;12.80;99.90;;;;;;5088062;28;20293;-66
2023/10/30 01:09:05;;;;;;;0.87;0.63;;;12.80;99.90;;;;;;5101870;28;20198;-66
2023/10/30 01:11:32;;;;;;;0.87;0.40;;;12.80;99.90;;;;;;5108355;28;20252;-66
2023/10/30 01:13:59;;;;;;;1.70;0.50;;;12.80;99.90;;;;;;5108051;28;20289;-66
2023/10/30 01:16:26;;;;;;;1.30;0.73;;;12.80;99.90;;;;;;5100652;28;20219;-66
2023/10/30 01:18:52;;;;;;;2.10;0.40;;;12.80;99.90;;;;;;5097028;28;20293;-66
2023/10/30 01:21:20;;;;;;;2.60;0.53;;;12.80;99.90;;;;;;5106982;28;20206;-67
2023/10/30 01:23:48;;;;;;;0.80;0.40;;;12.80;99.90;;;;;;5094704;28;20767;-66
2023/10/30 01:26:15;;;;;;;0.87;0.57;;;12.80;99.90;;;;;;5087269;28;20842;-66
2023/10/30 01:28:42;;;;;;;2.00;0.50;;;12.80;99.90;;;;;;5087533;28;20712;-66
2023/10/30 01:31:09;;;;;;;1.50;0.57;;;12.70;99.90;;;;;;5094852;28;20987;-66
2023/10/30 01:33:36;;;;;;;0.73;0.40;;;12.80;99.90;;;;;;5107092;28;20213;-66
2023/10/30 01:36:04;;;;;;;1.90;0.30;;;12.70;99.90;;;;;;5107767;28;20265;-66
2023/10/30 01:38:30;;;;;;;0.77;0.50;;;12.70;99.90;;;;;;5107852;28;20226;-66
2023/10/30 01:40:59;;;;;;;0.53;0.40;;;12.70;99.90;;;;;;5106585;28;20782;-66
2023/10/30 01:43:31;;;;;;;0.40;0.40;;;12.70;99.90;;;;;;5107705;28;20249;-66
2023/10/30 01:45:58;;;;;;;3.90;0.70;;;12.70;99.90;;;;;;5107669;28;20251;-66
2023/10/30 01:48:25;;;;;;;1.60;0.40;;;12.70;99.90;;;;;;5107277;28;20236;-67
2023/10/30 01:50:52;;;;;;;1.07;0.63;;;12.70;99.90;;;;;;5107654;28;20293;-66
2023/10/30 01:53:21;;;;;;;0.70;0.50;;;12.70;99.90;;;;;;5107085;28;20727;-66
2023/10/30 01:55:49;;;;;;;0.70;0.50;;;12.70;99.90;;;;;;5101503;28;20836;-67
2023/10/30 01:58:18;;;;;;;0.50;0.50;;;12.70;99.90;;;;;;5086648;28;20229;-66
2023/10/30 02:00:46;;;;;;;0.87;0.23;;;12.70;99.90;;;;;;5087081;28;20301;-66
2023/10/30 02:03:13;;;;;;;0.47;0.30;;;12.70;99.90;;;;;;5091579;28;20206;-67
2023/10/30 02:05:41;;;;;;;0.90;0.47;;;12.60;99.90;;;;;;5090282;28;20210;-66
2023/10/30 02:08:09;;;;;;;2.23;0.37;;;12.60;99.90;;;;;;5086389;28;21007;-66
2023/10/30 02:10:36;;;;;;;1.60;0.63;;;12.60;99.90;;;;;;5086575;28;20213;-67
2023/10/30 02:13:06;;;;;;;1.30;0.70;;;12.60;99.90;;;;;;5091554;28;20206;-66
2023/10/30 02:15:34;;;;;;;1.77;0.50;;;12.60;99.90;;;;;;5099421;28;20213;-66
2023/10/30 02:18:01;;;;;;;4.87;0.70;;;12.60;99.90;;;;;;5101064;28;20209;-66
2023/10/30 02:20:28;;;;;;;2.97;0.80;;;12.60;99.90;;;;;;5087531;28;20302;-66
2023/10/30 02:22:55;;;;;;;0.83;0.43;;;12.60;99.90;;;;;;5106897;28;20213;-66
2023/10/30 02:25:25;;;;;;;1.37;0.53;;;12.60;99.90;;;;;;5106675;28;20289;-66
2023/10/30 02:27:52;;;;;;;1.60;0.60;;;12.60;99.90;;;;;;5095801;28;20305;-66
2023/10/30 02:30:20;;;;;;;3.83;0.60;;;12.60;99.90;;;;;;5086201;28;20584;-66
2023/10/30 02:32:47;;;;;;;3.10;0.80;;;12.60;99.90;;;;;;5086383;28;20244;-67
2023/10/30 02:35:15;;;;;;;0.70;0.60;;;12.60;99.90;;;;;;5086773;28;20205;-66
2023/10/30 02:37:42;;;;;;;1.70;0.70;;;12.50;99.90;;;;;;5085850;28;20254;-66
2023/10/30 02:40:09;;;;;;;2.87;0.50;;;12.50;99.90;;;;;;5086413;28;20285;-66
2023/10/30 02:42:38;;;;;;;1.07;0.60;;;12.50;99.90;;;;;;5085984;28;20263;-66
2023/10/30 02:45:06;;;;;;;2.23;0.63;;;12.50;99.90;;;;;;5085993;28;20290;-66
2023/10/30 02:47:34;;;;;;;1.27;0.63;;;12.50;99.90;;;;;;5086109;28;20763;-66
2023/10/30 02:50:01;;;;;;;1.77;0.50;;;12.50;99.90;;;;;;5086404;28;20214;-66
2023/10/30 02:52:29;;;;;;;2.47;0.60;;;12.50;99.90;;;;;;5086233;28;20210;-66
2023/10/30 02:54:57;;;;;;;0.47;0.47;;;12.50;99.90;;;;;;5086102;28;20681;-66
2023/10/30 02:57:24;;;;;;;2.73;0.73;;;12.50;99.90;;;;;;5097145;28;20658;-66
2023/10/30 02:59:52;;;;;;;1.30;0.60;;;12.50;99.90;;;;;;5106589;28;20234;-66
2023/10/30 03:02:19;;;;;;;1.20;0.60;;;12.40;99.90;;;;;;5106090;28;20289;-67
2023/10/30 03:04:46;;;;;;;0.90;0.50;;;12.40;99.90;;;;;;5091200;28;20292;-66
2023/10/30 03:07:15;;;;;;;2.23;0.60;;;12.40;99.90;;;;;;5085063;28;20662;-67
2023/10/30 03:09:42;;;;;;;2.87;0.70;;;12.40;99.90;;;;;;5099041;28;20214;-66
2023/10/30 03:12:09;;;;;;;0.60;0.50;;;12.40;99.90;;;;;;5103528;28;20653;-67
2023/10/30 03:14:35;;;;;;;1.50;0.70;;;12.40;99.90;;;;;;5105700;28;20210;-66
2023/10/30 03:17:04;;;;;;;2.17;0.57;;;12.40;99.90;;;;;;5105594;28;20214;-65
2023/10/30 03:19:31;;;;;;;1.83;0.50;;;12.40;99.90;;;;;;5095227;28;20310;-65
2023/10/30 03:21:58;;;;;;;0.83;0.63;;;12.40;99.90;;;;;;5098882;28;20660;-66
2023/10/30 03:24:24;;;;;;;1.03;0.50;;;12.40;99.90;;;;;;5105074;28;20225;-66
2023/10/30 03:26:51;;;;;;;2.27;0.50;;;12.40;99.90;;;;;;5095240;28;20202;-66
2023/10/30 03:29:18;;;;;;;1.23;0.67;;;12.40;99.90;;;;;;5085258;28;20275;-66
2023/10/30 03:31:45;;;;;;;1.40;0.40;;;12.40;99.90;;;;;;5085018;28;20206;-66
2023/10/30 03:34:16;;;;;;;2.33;0.73;;;12.40;99.90;;;;;;5085092;28;20202;-66
2023/10/30 03:36:44;;;;;;;2.03;0.40;;;12.40;99.90;;;;;;5084388;28;20234;-66
2023/10/30 03:39:11;;;;;;;1.93;0.67;;;12.40;99.90;;;;;;5083476;28;20305;-66
2023/10/30 03:41:38;;;;;;;2.37;0.80;;;12.40;99.90;;;;;;5083579;28;20206;-67
2023/10/30 03:44:08;;;;;;;2.43;1.27;;;12.40;99.90;;;;;;5092433;28;20697;-66
2023/10/30 03:46:35;;;;;;;2.20;0.80;;;12.40;99.90;;;;;;5104105;28;20206;-66
2023/10/30 03:49:02;;;;;;;3.93;0.80;;;12.40;99.90;;;;;;5103654;28;20229;-66
2023/10/30 03:51:30;;;;;;;1.13;0.80;;;12.40;99.90;;;;;;5104034;28;20288;-66
2023/10/30 03:53:57;;;;;;;2.03;0.77;;;12.40;99.90;;;;;;5103704;28;20300;-66
2023/10/30 03:56:24;;;;;;;3.37;0.50;;;12.40;99.90;;;;;;5101954;28;20204;-66
2023/10/30 03:58:51;;;;;;;2.87;0.77;;;12.40;99.90;;;;;;5102308;28;20729;-66
2023/10/30 04:01:18;;;;;;;0.70;0.60;;;12.40;99.90;;;;;;5104473;28;20690;-66
2023/10/30 04:03:44;;;;;;;1.27;0.70;;;12.40;99.90;;;;;;5103823;28;20300;-66
2023/10/30 04:06:12;;;;;;;2.30;0.53;;;12.40;99.90;;;;;;5087854;28;20213;-66
2023/10/30 04:08:40;;;;;;;2.03;0.60;;;12.40;99.90;;;;;;5104384;28;20544;-66
2023/10/30 04:11:12;;;;;;;0.67;0.53;;;12.40;99.90;;;;;;5106715;28;20999;-66
2023/10/30 04:13:39;;;;;;;2.73;1.00;;;12.40;99.90;;;;;;5087796;28;20234;-66
2023/10/30 04:16:07;;;;;;;1.07;0.60;;;12.40;99.90;;;;;;5108830;28;20260;-66
2023/10/30 04:18:33;;;;;;;1.93;0.70;;;12.40;99.90;;;;;;5108505;28;20297;-66
2023/10/30 04:21:00;;;;;;;4.20;0.90;;;12.40;99.90;;;;;;5108803;28;20289;-66
2023/10/30 04:23:27;;;;;;;2.97;0.70;;;12.40;99.90;;;;;;5108915;28;20302;-66
2023/10/30 04:25:57;;;;;;;2.30;0.80;;;12.40;99.90;;;;;;5106749;28;20210;-66
2023/10/30 04:28:23;;;;;;;1.57;0.73;;;12.40;99.90;;;;;;5088316;28;20242;-66
2023/10/30 04:30:50;;;;;;;1.40;1.00;;;12.40;99.90;;;;;;5088964;28;20213;-66
2023/10/30 04:33:18;;;;;;;3.20;1.23;;;12.40;99.90;;;;;;5094268;28;20324;-66
2023/10/30 04:35:45;;;;;;;1.97;0.70;;;12.40;99.90;;;;;;5109031;28;20198;-67
2023/10/30 04:38:12;;;;;;;3.07;0.87;;;12.40;99.90;;;;;;5109251;28;20212;-66
2023/10/30 04:40:39;;;;;;;1.80;0.90;;;12.40;99.90;;;;;;5109323;28;20982;-66
2023/10/30 04:43:07;;;;;;;2.77;0.80;;;12.40;99.90;;;;;;5108705;28;20672;-66
2023/10/30 04:45:34;;;;;;;0.73;0.67;;;12.40;99.90;;;;;;5108614;28;20210;-66
2023/10/30 04:48:02;;;;;;;2.77;1.03;;;12.40;99.90;;;;;;5105371;27;20207;-66
2023/10/30 04:50:29;;;;;;;2.43;0.80;;;12.40;99.90;;;;;;5105191;28;20213;-66
2023/10/30 04:52:56;;;;;;;1.70;0.97;;;12.30;99.90;;;;;;5108312;28;20202;-66
2023/10/30 04:55:23;;;;;;;2.77;1.00;;;12.30;99.90;;;;;;5108547;28;20210;-66
2023/10/30 04:57:49;;;;;;;4.23;1.17;;;12.30;99.90;;;;;;5108361;28;20239;-66
2023/10/30 05:00:18;;;;;;;2.30;0.70;;;12.30;99.90;;;;;;5108158;28;20229;-66
2023/10/30 05:02:46;;;;;;;0.60;0.60;;;12.30;99.90;;;;;;5107939;27;20310;-66
2023/10/30 05:05:14;;;;;;;3.60;0.80;;;12.30;99.90;;;;;;5108146;28;20221;-66
2023/10/30 05:07:40;;;;;;;2.73;0.80;;;12.30;99.90;;;;;;5108024;28;20303;-66
2023/10/30 05:10:08;;;;;;;3.40;0.90;;;12.30;99.90;;;;;;5108487;28;20234;-66
2023/10/30 05:12:35;;;;;;;2.10;0.97;;;12.30;99.90;;;;;;5108542;28;20210;-66
2023/10/30 05:15:02;;;;;;;2.00;0.83;;;12.30;99.90;;;;;;5109000;28;20297;-66
2023/10/30 05:17:30;;;;;;;2.47;0.77;;;12.30;99.90;;;;;;5108115;28;20289;-66
2023/10/30 05:19:57;;;;;;;2.27;1.80;;;12.30;99.90;;;;;;5107609;28;20300;-66
2023/10/30 05:22:24;;;;;;;4.07;1.93;;;12.30;99.90;;;;;;5108141;28;21015;-66
2023/10/30 05:24:51;;;;;;;4.53;2.37;;;12.30;99.90;;;;;;5107901;28;21027;-66
2023/10/30 05:27:18;;;;;;;2.80;1.80;;;12.30;99.90;;;;;;5108031;28;20813;-66
2023/10/30 05:29:45;;;;;;;1.80;1.50;;;12.20;99.90;;;;;;5108076;28;20222;-66
2023/10/30 05:32:12;;;;;;;2.03;1.10;;;12.20;99.90;;;;;;5107844;28;20210;-66
2023/10/30 05:34:40;;;;;;;2.77;1.67;;;12.20;99.90;;;;;;5107343;28;20701;-66
2023/10/30 05:37:09;;;;;;;3.93;1.30;;;12.20;99.90;;;;;;5107264;28;20326;-66
2023/10/30 05:39:36;;;;;;;1.73;0.90;;;12.20;99.90;;;;;;5107239;28;20239;-66
2023/10/30 05:42:03;;;;;;;1.73;1.43;;;12.20;99.90;;;;;;5107461;28;20301;-66
2023/10/30 05:44:31;;;;;;;2.50;1.50;;;12.20;99.90;;;;;;5107347;28;20890;-66
2023/10/30 05:46:58;;;;;;;2.73;1.60;;;12.10;99.90;;;;;;5107882;28;20206;-66
2023/10/30 05:49:25;;;;;;;1.37;1.00;;;12.10;99.90;;;;;;5107384;28;20585;-66
2023/10/30 05:51:53;;;;;;;1.83;1.30;;;12.20;99.90;;;;;;5107873;28;20253;-66
2023/10/30 05:54:20;;;;;;;2.27;1.50;;;12.10;99.90;;;;;;5107294;28;20684;-66
2023/10/30 05:56:47;;;;;;;3.77;1.00;;;12.10;99.90;;;;;;5107430;28;20206;-66
2023/10/30 05:59:14;;;;;;;3.80;1.40;;;12.20;99.90;;;;;;5086543;28;20233;-66
2023/10/30 06:01:41;;;;;;;1.50;0.80;;;12.10;99.90;;;;;;5086871;28;20294;-66
2023/10/30 06:04:08;;;;;;;3.90;1.80;;;12.20;99.90;;;;;;5086647;28;20210;-66
2023/10/30 06:06:35;;;;;;;2.47;1.37;;;12.20;99.90;;;;;;5086701;28;20722;-66
2023/10/30 06:09:03;;;;;;;2.87;1.00;;;12.10;99.90;;;;;;5086515;28;20321;-66
2023/10/30 06:11:30;;;;;;;2.33;1.30;;;12.20;99.90;;;;;;5086272;28;20573;-66
2023/10/30 06:13:57;;;;;;;1.50;0.80;;;12.20;99.90;;;;;;5098824;28;20210;-66
2023/10/30 06:16:24;;;;;;;5.27;1.03;;;12.20;99.90;;;;;;5085677;28;20297;-66
2023/10/30 06:18:51;;;;;;;3.33;1.40;;;12.20;99.90;;;;;;5086177;28;20305;-66
2023/10/30 06:21:18;;;;;;;2.00;1.53;;;12.20;99.90;;;;;;5086720;28;20249;-66
2023/10/30 06:23:45;;;;;;;3.97;1.80;;;12.20;99.90;;;;;;5086837;28;20285;-66
2023/10/30 06:26:14;;;;;;;1.40;1.30;;;12.20;99.90;;;;;;5086266;28;20745;-66
2023/10/30 06:28:41;;;;;;;3.37;1.27;;;12.20;99.90;;;;;;5085910;28;20683;-66
2023/10/30 06:31:14;;;;;;;1.40;1.23;;;12.20;99.90;;;;;;5085336;28;20290;-66
2023/10/30 06:33:41;;;;;;;1.80;0.90;;;12.20;99.90;;;;;;5095095;28;20297;-66
2023/10/30 06:36:09;;;;;;;3.33;1.00;;;12.30;99.90;;;;;;5106477;28;20237;-66
2023/10/30 06:38:36;;;;;;;3.47;1.37;;;12.30;99.90;;;;;;5106399;28;20194;-66
2023/10/30 06:41:03;;;;;;;4.00;1.40;;;12.30;99.90;;;;;;5106138;28;20212;-66
2023/10/30 06:43:32;;;;;;;5.33;1.30;;;12.30;99.90;;;;;;5105954;28;20239;-66
2023/10/30 06:45:59;;;;;;;3.67;1.07;;;12.40;99.90;;;;;;5106303;28;20259;-66
2023/10/30 06:48:27;;;;;;;1.23;0.83;;;12.40;99.90;;;;;;5105740;28;20212;-66
2023/10/30 06:50:56;;;;;;;1.90;1.20;;;12.40;99.90;;;;;;5106661;28;20210;-66
2023/10/30 06:53:24;;;;;;;5.30;1.30;;;12.40;99.90;;;;;;5103209;28;20862;-66
2023/10/30 06:55:51;;;;;;;4.37;1.10;;;12.40;99.90;;;;;;5090295;28;20702;-66
2023/10/30 06:58:18;;;;;;;1.27;0.80;;;12.40;99.90;;;;;;5106547;28;20321;-66
2023/10/30 07:00:46;;;;;;;2.90;0.83;;;12.40;99.90;;;;;;5106183;28;20205;-66
2023/10/30 07:03:13;;;;;;;5.73;1.17;;;12.50;99.90;;;;;;5105480;28;20214;-66
2023/10/30 07:05:42;;;;;;;2.83;1.40;;;12.50;99.90;;;;;;5105554;28;20300;-66
2023/10/30 07:08:08;;;;;;;3.60;0.80;;;12.50;99.90;;;;;;5102870;28;20282;-66
2023/10/30 07:10:36;;;;;;;2.53;1.17;;;12.60;99.90;;;;;;5085541;28;20234;-66
2023/10/30 07:13:03;;;;;;;3.03;0.83;;;12.60;99.90;;;;;;5085378;28;20207;-66
2023/10/30 07:15:30;;;;;;;3.50;1.17;;;12.60;99.90;;;;;;5085534;28;20306;-66
2023/10/30 07:17:58;;;;;;;2.23;0.77;;;12.70;99.90;;;;;;5085228;28;20297;-66
2023/10/30 07:20:25;;;;;;;3.33;1.30;;;12.70;99.90;;;;;;5085451;28;20210;-66
2023/10/30 07:22:52;;;;;;;4.37;1.70;;;12.80;99.90;;;;;;5085989;28;20305;-66
2023/10/30 07:25:19;;;;;;;2.60;1.20;;;12.80;99.90;;;;;;5085750;28;20302;-66
2023/10/30 07:27:46;;;;;;;2.67;1.50;;;12.80;99.90;;;;;;5085654;28;20213;-66
2023/10/30 07:30:14;;;;;;;2.10;0.90;;;12.90;99.90;;;;;;5085699;28;20321;-66
2023/10/30 07:32:42;;;;;;;2.20;1.03;;;12.90;99.90;;;;;;5085203;28;20210;-66
2023/10/30 07:35:11;;;;;;;3.37;1.00;;;12.90;99.90;;;;;;5085218;28;20209;-66
2023/10/30 07:37:38;;;;;;;2.13;0.93;;;12.90;99.90;;;;;;5084634;28;20230;-66
2023/10/30 07:40:06;;;;;;;2.70;0.93;;;12.90;99.90;;;;;;5085154;28;20213;-66
2023/10/30 07:42:33;;;;;;;3.33;0.97;;;13.00;99.90;;;;;;5084103;28;20206;-66
2023/10/30 07:45:00;;;;;;;1.47;0.90;;;13.00;99.90;;;;;;5085021;28;20733;-66
2023/10/30 07:47:27;;;;;;;2.03;0.97;;;13.00;99.90;;;;;;5085036;28;20211;-66
2023/10/30 07:49:54;;;;;;;2.97;0.97;;;13.00;99.90;;;;;;5089758;28;21046;-67
2023/10/30 07:52:22;;;;;;;5.90;1.17;;;13.00;99.90;;;;;;5105361;28;20594;-66
2023/10/30 07:54:49;;;;;;;2.27;1.00;;;13.10;99.90;;;;;;5105720;28;20202;-66
2023/10/30 07:57:16;;;;;;;1.63;1.07;;;13.10;99.90;;;;;;5105803;28;20313;-66
2023/10/30 07:59:43;;;;;;;4.10;1.07;;;13.10;99.90;;;;;;5105798;28;20418;-66
2023/10/30 08:02:10;;;;;;;2.17;1.20;;;13.10;99.90;;;;;;5106042;28;20297;-66
2023/10/30 08:04:37;;;;;;;4.40;1.33;;;13.20;99.90;;;;;;5105538;28;20297;-66
2023/10/30 08:07:04;;;;;;;4.03;1.10;;;13.20;99.90;;;;;;5105633;28;20758;-66
2023/10/30 08:09:33;;;;;;;1.83;1.00;;;13.20;99.90;;;;;;5105217;28;20226;-66
2023/10/30 08:12:00;;;;;;;5.30;1.23;;;13.20;99.90;;;;;;5105400;28;20250;-66
2023/10/30 08:14:27;;;;;;;1.07;0.90;;;13.20;99.90;;;;;;5105384;28;20234;-66
2023/10/30 08:16:54;;;;;;;5.07;1.00;;;13.20;99.90;;;;;;5104994;28;20224;-66
2023/10/30 08:19:21;;;;;;;3.93;1.50;;;13.20;99.90;;;;;;5104542;28;20310;-67
2023/10/30 08:21:48;;;;;;;3.00;1.13;;;13.20;99.90;;;;;;5105095;28;20304;-66
2023/10/30 08:24:18;;;;;;;4.60;1.33;;;13.20;99.90;;;;;;5105244;28;20210;-66
2023/10/30 08:26:46;;;;;;;4.90;1.00;;;13.20;99.90;;;;;;5104989;28;20247;-66
2023/10/30 08:29:13;;;;;;;8.13;1.47;;;13.30;99.90;;;;;;5105426;28;20298;-66
2023/10/30 08:31:40;;;;;;;4.10;1.43;;;13.30;99.90;;;;;;5105207;28;20210;-66
2023/10/30 08:34:07;;;;;;;2.43;1.40;;;13.30;99.90;;;;;;5099352;28;20298;-66
2023/10/30 08:36:34;;;;;;;4.27;1.40;;;13.30;99.90;;;;;;5085369;28;20263;-66
2023/10/30 08:39:01;;;;;;;2.70;0.97;;;13.30;99.90;;;;;;5105032;28;20300;-66
2023/10/30 08:41:27;;;;;;;2.00;1.00;;;13.30;99.90;;;;;;5104696;28;20285;-66
2023/10/30 08:43:56;;;;;;;3.50;1.20;;;13.40;99.90;;;;;;5104881;28;20229;-66
2023/10/30 08:46:22;;;;;;;3.27;1.10;;;13.40;99.90;;;;;;5104584;28;20297;-66
2023/10/30 08:48:50;;;;;;;2.70;1.20;;;13.40;99.90;;;;;;5104677;28;20293;-66
2023/10/30 08:51:17;;;;;;;10.33;1.10;;;13.40;99.90;;;;;;5104772;28;20233;-66
2023/10/30 08:53:44;;;;;;;3.07;1.20;;;13.40;99.90;;;;;;5104917;28;20255;-66
2023/10/30 08:56:11;;;;;;;3.07;1.67;;;13.50;99.90;;;;;;5108002;28;20300;-66
2023/10/30 08:58:38;;;;;;;2.00;1.00;;;13.50;99.90;;;;;;5108513;28;20229;-66
2023/10/30 09:01:06;;;;;;;3.30;1.33;;;13.60;99.90;;;;;;5108263;28;20206;-66
2023/10/30 09:03:33;;;;;;;1.50;1.00;;;13.60;99.90;;;;;;5108178;28;20278;-66
2023/10/30 09:06:00;;;;;;;3.03;1.10;;;13.70;99.90;;;;;;5108274;28;20250;-66
2023/10/30 09:08:27;;;;;;;2.30;0.90;;;13.70;99.90;;;;;;5107849;28;20209;-66
2023/10/30 09:10:53;;;;;;;1.40;0.90;;;13.70;99.90;;;;;;5107860;28;20324;-66
2023/10/30 09:13:20;;;;;;;4.67;1.30;;;13.70;99.90;;;;;;5107812;28;20210;-66
2023/10/30 09:15:47;;;;;;;4.17;1.20;;;13.70;99.90;;;;;;5108317;27;20206;-66
2023/10/30 09:18:15;;;;;;;4.87;1.27;;;13.70;99.90;;;;;;5107523;27;20241;-66
2023/10/30 09:20:42;;;;;;;3.70;1.47;;;13.70;99.90;;;;;;5107648;28;20213;-66
2023/10/30 09:23:09;;;;;;;2.97;1.40;;;13.70;99.90;;;;;;5107923;28;20620;-66
2023/10/30 09:25:36;;;;;;;3.93;1.17;;;13.70;99.90;;;;;;5107904;28;20206;-66
2023/10/30 09:28:03;;;;;;;1.37;0.90;;;13.70;99.90;;;;;;5107801;28;20312;-66
2023/10/30 09:30:30;;;;;;;5.90;1.53;;;13.80;99.90;;;;;;5100897;28;20230;-66
2023/10/30 09:32:59;;;;;;;1.60;0.90;;;13.80;99.90;;;;;;5087489;28;20217;-66
2023/10/30 09:35:29;;;;;;;1.67;1.07;;;13.80;99.90;;;;;;5087128;28;20318;-66
2023/10/30 09:37:57;;;;;;;2.67;1.50;;;13.80;99.90;;;;;;5086741;28;20235;-66
2023/10/30 09:40:26;;;;;;;3.53;1.27;;;13.90;99.90;;;;;;5086563;28;20724;-66
2023/10/30 09:42:53;;;;;;;2.17;1.30;;;13.90;99.90;;;;;;5086497;28;20207;-66
2023/10/30 09:45:22;;;;;;;3.13;1.20;;;13.90;99.90;;;;;;5097748;28;20297;-67
2023/10/30 09:47:51;;;;;;;2.27;1.20;;;14.00;99.90;;;;;;5107294;28;20205;-66
2023/10/30 09:50:19;;;;;;;3.07;1.20;;;14.00;99.90;;;;;;5106941;28;20236;-66
2023/10/30 09:52:49;;;;;;;4.70;1.00;;;14.10;99.90;;;;;;5107581;28;20236;-66
2023/10/30 09:55:17;;;;;;;6.17;1.03;;;14.10;99.90;;;;;;5107445;28;20202;-66
2023/10/30 09:57:44;;;;;;;3.03;1.60;;;14.20;99.90;;;;;;5097389;28;20308;-66
2023/10/30 10:00:12;;;;;;;3.57;1.27;;;14.20;99.90;;;;;;5087173;28;20238;-66
2023/10/30 10:02:41;;;;;;;4.67;1.07;;;14.20;99.90;;;;;;5087021;28;20697;-66
2023/10/30 10:05:09;;;;;;;3.73;1.37;;;14.30;99.90;;;;;;5106782;28;20213;-66
2023/10/30 10:07:36;;;;;;;4.63;1.30;;;14.30;99.90;;;;;;5107024;28;20202;-66
2023/10/30 10:10:07;;;;;;;3.50;1.60;;;14.30;99.90;;;;;;5106704;28;20320;-66
2023/10/30 10:12:34;;;;;;;3.00;1.20;;;14.30;99.90;;;;;;5106616;28;20651;-66
2023/10/30 10:15:03;;;;;;;3.97;2.10;;;14.30;99.90;;;;;;5106428;28;20206;-66
2023/10/30 10:17:30;;;;;;;4.10;3.20;;;14.40;99.90;;;;;;5106059;28;20306;-66
2023/10/30 10:20:03;;;;;;;3.77;1.93;;;14.40;99.90;;;;;;5106325;28;20201;-66
2023/10/30 10:22:31;;;;;;;5.07;1.50;;;14.40;99.90;;;;;;5106457;28;20190;-66
2023/10/30 10:25:00;;;;;;;3.67;1.77;;;14.50;99.90;;;;;;5106765;28;20267;-66
2023/10/30 10:27:28;;;;;;;2.53;1.23;;;14.50;99.90;;;;;;5091191;28;20244;-66
2023/10/30 10:29:56;;;;;;;4.40;1.40;;;14.60;99.90;;;;;;5094618;28;20261;-66
2023/10/30 10:32:26;;;;;;;6.23;1.87;;;14.60;99.90;;;;;;5085768;28;20202;-66
2023/10/30 10:34:53;;;;;;;2.10;1.50;;;14.60;99.90;;;;;;5105670;28;20213;-66
2023/10/30 10:37:20;;;;;;;3.40;1.17;;;14.70;99.90;;;;;;5106016;28;20244;-67
2023/10/30 10:39:48;;;;;;;3.67;1.10;;;14.70;99.90;;;;;;5106025;28;20206;-66
2023/10/30 10:42:18;;;;;;;3.53;1.10;;;14.80;99.90;;;;;;5106139;28;20212;-66
2023/10/30 10:44:49;;;;;;;2.63;1.30;;;14.80;99.90;;;;;;5106127;28;20206;-66
2023/10/30 10:47:16;;;;;;;3.23;1.40;;;14.90;99.90;;;;;;5106267;28;20194;-66
2023/10/30 10:49:43;;;;;;;3.90;1.10;;;14.90;99.90;;;;;;5105833;28;20231;-66
2023/10/30 10:52:12;;;;;;;1.63;1.17;;;14.90;99.90;;;;;;5106212;28;20208;-66
2023/10/30 10:54:47;;;;;;;3.17;1.30;;;14.90;99.90;;;;;;5105940;28;20210;-67
2023/10/30 10:57:17;;;;;;;2.77;1.10;;;14.80;99.90;;;;;;5105805;28;20956;-66
2023/10/30 10:59:48;;;;;;;2.93;1.33;;;14.70;99.90;;;;;;5106017;28;20202;-66
2023/10/30 11:02:21;;;;;;;1.53;0.90;;;14.70;99.90;;;;;;5106324;28;20200;-66
2023/10/30 11:04:49;;;;;;;4.00;1.40;;;14.70;99.90;;;;;;5106094;28;20734;-66
2023/10/30 11:07:26;;;;;;;6.63;5.90;;;14.90;99.90;;;;;;5106173;28;20210;-67
2023/10/30 11:09:58;;;;;;;7.10;3.57;;;15.10;99.90;;;;;;5106462;28;20194;-66
2023/10/30 11:12:43;;;;;;;2.97;1.43;;;15.30;99.90;;;;;;5105549;27;20199;-66
2023/10/30 11:15:20;;;;;;;3.93;1.17;;;15.40;99.90;;;;;;5106225;28;20201;-67
2023/10/30 11:18:17;;;;;;;4.93;1.10;;;15.50;99.90;;;;;;5105438;28;20206;-67
2023/10/30 11:20:44;;;;;;;2.70;1.17;;;15.50;99.90;;;;;;5105661;28;20610;-67
2023/10/30 11:23:13;;;;;;;3.00;1.03;;;15.50;99.90;;;;;;5105826;28;20213;-67
2023/10/30 11:25:54;;;;;;;5.57;1.33;;;15.60;99.90;;;;;;5105504;28;20202;-67
2023/10/30 11:28:23;;;;;;;1.80;1.30;;;15.70;99.90;;;;;;5103156;28;20202;-66
2023/10/30 11:30:52;;;;;;;6.37;1.10;;;15.90;99.90;;;;;;5105637;28;20320;-66
2023/10/30 11:33:21;;;;;;;2.60;1.30;;;16.10;99.90;;;;;;5105810;28;20213;-67
2023/10/30 11:35:52;;;;;;;3.03;0.97;;;16.30;99.90;;;;;;5093608;28;20293;-67
2023/10/30 11:38:21;;;;;;;3.27;1.50;;;16.60;99.90;;;;;;5085230;28;20238;-67
2023/10/30 11:41:04;;;;;;;4.53;1.50;;;16.70;99.90;;;;;;5085391;28;20298;-67
2023/10/30 11:43:34;;;;;;;3.60;1.77;;;16.80;99.90;;;;;;5085134;28;20361;-67
2023/10/30 11:46:07;;;;;;;5.90;1.97;;;16.60;99.90;;;;;;5086117;28;20217;-66
2023/10/30 11:48:38;;;;;;;4.30;1.57;;;16.50;99.90;;;;;;5085339;28;20202;-67
2023/10/30 11:51:05;;;;;;;3.37;1.43;;;16.30;99.90;;;;;;5102509;28;20257;-67
2023/10/30 11:53:33;;;;;;;4.70;1.40;;;16.30;99.90;;;;;;5105299;28;20573;-66
2023/10/30 11:56:00;;;;;;;3.17;1.40;;;16.50;99.90;;;;;;5105179;28;20301;-67
2023/10/30 11:58:28;;;;;;;2.63;1.30;;;16.70;99.90;;;;;;5105105;28;20321;-67
2023/10/30 12:00:58;;;;;;;1.93;1.00;;;17.00;99.90;;;;;;5105062;28;20672;-67
2023/10/30 12:03:26;;;;;;;3.97;1.33;;;17.20;99.90;;;;;;5104512;28;20679;-67
2023/10/30 12:05:53;;;;;;;5.17;1.50;;;17.40;99.90;;;;;;5105142;28;20204;-67
2023/10/30 12:08:20;;;;;;;3.63;1.43;;;17.60;99.90;;;;;;5104878;28;20695;-67
2023/10/30 12:10:49;;;;;;;1.77;1.10;;;17.60;99.90;;;;;;5104857;28;20725;-67
2023/10/30 12:13:16;;;;;;;3.07;1.50;;;17.80;99.90;;;;;;5104927;28;20206;-67
2023/10/30 12:15:43;;;;;;;2.83;1.30;;;17.70;99.90;;;;;;5105330;28;20285;-67
2023/10/30 12:18:10;;;;;;;1.47;0.93;;;17.50;99.90;;;;;;5105022;28;20210;-67
2023/10/30 12:20:39;;;;;;;5.13;1.30;;;17.30;99.90;;;;;;5087133;28;20217;-66
2023/10/30 12:23:09;;;;;;;4.20;1.47;;;17.30;99.90;;;;;;5090128;28;20198;-66
2023/10/30 12:25:36;;;;;;;4.13;1.40;;;17.40;99.90;;;;;;5104905;28;20309;-67
2023/10/30 12:28:04;;;;;;;3.00;1.33;;;17.60;99.90;;;;;;5084604;28;20290;-67
2023/10/30 12:30:35;;;;;;;2.00;1.20;;;17.70;99.90;;;;;;5088288;28;20226;-67
2023/10/30 12:33:03;;;;;;;2.73;1.63;;;17.90;99.90;;;;;;5106274;28;20680;-67
2023/10/30 12:35:29;;;;;;;2.77;1.13;;;18.00;99.90;;;;;;5088285;28;20290;-67
2023/10/30 12:37:58;;;;;;;2.93;1.30;;;18.20;99.90;;;;;;5088253;28;20240;-67
2023/10/30 12:40:25;;;;;;;3.47;1.33;;;18.30;99.90;;;;;;5088441;28;20265;-67
2023/10/30 12:42:52;;;;;;;7.03;1.70;;;18.30;99.90;;;;;;5088584;28;20218;-67
2023/10/30 12:45:21;;;;;;;3.87;1.57;;;18.20;99.90;;;;;;5088003;28;20209;-67
2023/10/30 12:47:49;;;;;;;3.13;1.30;;;18.10;99.90;;;;;;5088262;28;20298;-67
2023/10/30 12:50:17;;;;;;;5.43;1.10;;;18.10;99.90;;;;;;5088159;28;20606;-67